sensor_id;sensor_type;location;lat;lon;timestamp;temperature;humidity
13976;DHT22;7062;49.792;9.946;2024-02-28T00:00:52;9.60;99.90
13976;DHT22;7062;49.792;9.946;2024-02-28T00:03:18;9.60;99.90
13976;DHT22;7062;49.792;9.946;2024-02-28T00:05:44;9.70;99.90
13976;DHT22;7062;49.792;9.946;2024-02-28T00:08:11;9.70;99.90
13976;DHT22;7062;49.792;9.946;2024-02-28T00:10:36;9.70;99.90
13976;DHT22;7062;49.792;9.946;2024-02-28T00:13:02;9.70;99.90
13976;DHT22;7062;49.792;9.946;2024-02-28T00:15:28;9.70;99.90
13976;DHT22;7062;49.792;9.946;2024-02-28T00:17:54;9.70;99.90
13976;DHT22;7062;49.792;9.946;2024-02-28T00:20:20;9.60;99.90
13976;DHT22;7062;49.792;9.946;2024-02-28T00:22:45;9.60;99.90
13976;DHT22;7062;49.792;9.946;2024-02-28T00:25:11;9.50;99.90
13976;DHT22;7062;49.792;9.946;2024-02-28T00:27:38;9.40;99.90
13976;DHT22;7062;49.792;9.946;2024-02-28T00:30:04;9.30;99.90
13976;DHT22;7062;49.792;9.946;2024-02-28T00:32:32;9.20;99.90
13976;DHT22;7062;49.792;9.946;2024-02-28T00:34:58;9.30;99.90
13976;DHT22;7062;49.792;9.946;2024-02-28T00:37:23;9.40;99.90
13976;DHT22;7062;49.792;9.946;2024-02-28T00:39:49;9.30;99.90
13976;DHT22;7062;49.792;9.946;2024-02-28T00:42:15;9.40;99.90
13976;DHT22;7062;49.792;9.946;2024-02-28T00:44:40;9.40;99.90
13976;DHT22;7062;49.792;9.946;2024-02-28T00:47:08;9.40;99.90
13976;DHT22;7062;49.792;9.946;2024-02-28T00:49:34;9.40;99.90
13976;DHT22;7062;49.792;9.946;2024-02-28T00:52:00;9.40;99.90
13976;DHT22;7062;49.792;9.946;2024-02-28T00:54:26;9.30;99.90
13976;DHT22;7062;49.792;9.946;2024-02-28T00:56:51;9.10;99.90
13976;DHT22;7062;49.792;9.946;2024-02-28T00:59:17;9.00;99.90
13976;DHT22;7062;49.792;9.946;2024-02-28T01:01:43;9.10;99.90
13976;DHT22;7062;49.792;9.946;2024-02-28T01:04:08;9.10;99.90
13976;DHT22;7062;49.792;9.946;2024-02-28T01:06:34;9.10;99.90
13976;DHT22;7062;49.792;9.946;2024-02-28T01:08:59;9.30;99.90
13976;DHT22;7062;49.792;9.946;2024-02-28T01:11:25;9.30;99.90
13976;DHT22;7062;49.792;9.946;2024-02-28T01:13:51;9.40;99.90
13976;DHT22;7062;49.792;9.946;2024-02-28T01:16:16;9.40;99.90
13976;DHT22;7062;49.792;9.946;2024-02-28T01:18:42;9.20;99.90
13976;DHT22;7062;49.792;9.946;2024-02-28T01:21:08;9.20;99.90
13976;DHT22;7062;49.792;9.946;2024-02-28T01:23:34;9.10;99.90
13976;DHT22;7062;49.792;9.946;2024-02-28T01:25:59;9.10;99.90
13976;DHT22;7062;49.792;9.946;2024-02-28T01:28:28;9.20;99.90
13976;DHT22;7062;49.792;9.946;2024-02-28T01:30:54;9.40;99.90
13976;DHT22;7062;49.792;9.946;2024-02-28T01:33:19;9.40;99.90
13976;DHT22;7062;49.792;9.946;2024-02-28T01:35:45;9.50;99.90
13976;DHT22;7062;49.792;9.946;2024-02-28T01:38:11;9.50;99.90
13976;DHT22;7062;49.792;9.946;2024-02-28T01:40:36;9.50;99.90
13976;DHT22;7062;49.792;9.946;2024-02-28T01:43:11;9.50;99.90
13976;DHT22;7062;49.792;9.946;2024-02-28T01:45:37;9.50;99.90
13976;DHT22;7062;49.792;9.946;2024-02-28T01:48:04;9.60;99.90
13976;DHT22;7062;49.792;9.946;2024-02-28T01:50:32;9.50;99.90
13976;DHT22;7062;49.792;9.946;2024-02-28T01:52:58;9.50;99.90
13976;DHT22;7062;49.792;9.946;2024-02-28T01:55:25;9.60;99.90
13976;DHT22;7062;49.792;9.946;2024-02-28T01:57:52;9.50;99.90
13976;DHT22;7062;49.792;9.946;2024-02-28T02:00:18;9.40;99.90
13976;DHT22;7062;49.792;9.946;2024-02-28T02:02:44;9.40;99.90
13976;DHT22;7062;49.792;9.946;2024-02-28T02:05:10;9.30;99.90
13976;DHT22;7062;49.792;9.946;2024-02-28T02:07:36;9.30;99.90
13976;DHT22;7062;49.792;9.946;2024-02-28T02:10:02;9.20;99.90
13976;DHT22;7062;49.792;9.946;2024-02-28T02:12:27;9.30;99.90
13976;DHT22;7062;49.792;9.946;2024-02-28T02:14:53;9.20;99.90
13976;DHT22;7062;49.792;9.946;2024-02-28T02:17:18;9.20;99.90
13976;DHT22;7062;49.792;9.946;2024-02-28T02:19:44;9.10;99.90
13976;DHT22;7062;49.792;9.946;2024-02-28T02:22:13;9.10;99.90
13976;DHT22;7062;49.792;9.946;2024-02-28T02:24:38;8.90;99.90
13976;DHT22;7062;49.792;9.946;2024-02-28T02:27:04;8.90;99.90
13976;DHT22;7062;49.792;9.946;2024-02-28T02:29:30;8.90;99.90
13976;DHT22;7062;49.792;9.946;2024-02-28T02:31:56;8.90;99.90
13976;DHT22;7062;49.792;9.946;2024-02-28T02:34:22;8.80;99.90
13976;DHT22;7062;49.792;9.946;2024-02-28T02:36:47;8.80;99.90
13976;DHT22;7062;49.792;9.946;2024-02-28T02:39:13;9.00;99.90
13976;DHT22;7062;49.792;9.946;2024-02-28T02:41:38;9.10;99.90
13976;DHT22;7062;49.792;9.946;2024-02-28T02:44:04;9.10;99.90
13976;DHT22;7062;49.792;9.946;2024-02-28T02:46:30;9.10;99.90
13976;DHT22;7062;49.792;9.946;2024-02-28T02:48:55;8.90;99.90
13976;DHT22;7062;49.792;9.946;2024-02-28T02:51:21;8.90;99.90
13976;DHT22;7062;49.792;9.946;2024-02-28T02:53:47;8.80;99.90
13976;DHT22;7062;49.792;9.946;2024-02-28T02:56:12;8.90;99.90
13976;DHT22;7062;49.792;9.946;2024-02-28T02:58:38;8.90;99.90
13976;DHT22;7062;49.792;9.946;2024-02-28T03:01:03;8.90;99.90
13976;DHT22;7062;49.792;9.946;2024-02-28T03:03:30;9.00;99.90
13976;DHT22;7062;49.792;9.946;2024-02-28T03:05:56;9.00;99.90
13976;DHT22;7062;49.792;9.946;2024-02-28T03:08:21;8.90;99.90
13976;DHT22;7062;49.792;9.946;2024-02-28T03:10:47;8.80;99.90
13976;DHT22;7062;49.792;9.946;2024-02-28T03:13:13;8.60;99.90
13976;DHT22;7062;49.792;9.946;2024-02-28T03:15:39;8.40;99.90
13976;DHT22;7062;49.792;9.946;2024-02-28T03:18:04;8.50;99.90
13976;DHT22;7062;49.792;9.946;2024-02-28T03:20:30;8.50;99.90
13976;DHT22;7062;49.792;9.946;2024-02-28T03:22:55;8.60;99.90
13976;DHT22;7062;49.792;9.946;2024-02-28T03:25:21;8.50;99.90
13976;DHT22;7062;49.792;9.946;2024-02-28T03:27:47;8.40;99.90
13976;DHT22;7062;49.792;9.946;2024-02-28T03:30:12;8.50;99.90
13976;DHT22;7062;49.792;9.946;2024-02-28T03:32:38;8.60;99.90
13976;DHT22;7062;49.792;9.946;2024-02-28T03:35:04;8.70;99.90
13976;DHT22;7062;49.792;9.946;2024-02-28T03:37:30;8.60;99.90
13976;DHT22;7062;49.792;9.946;2024-02-28T03:39:56;8.70;99.90
13976;DHT22;7062;49.792;9.946;2024-02-28T03:42:22;8.80;99.90
13976;DHT22;7062;49.792;9.946;2024-02-28T03:44:48;8.90;99.90
13976;DHT22;7062;49.792;9.946;2024-02-28T03:47:13;8.90;99.90
13976;DHT22;7062;49.792;9.946;2024-02-28T03:49:39;8.90;99.90
13976;DHT22;7062;49.792;9.946;2024-02-28T03:52:04;9.00;99.90
13976;DHT22;7062;49.792;9.946;2024-02-28T03:54:31;9.10;99.90
13976;DHT22;7062;49.792;9.946;2024-02-28T03:56:57;9.10;99.90
13976;DHT22;7062;49.792;9.946;2024-02-28T03:59:24;9.10;99.90
13976;DHT22;7062;49.792;9.946;2024-02-28T04:01:49;9.00;99.90
13976;DHT22;7062;49.792;9.946;2024-02-28T04:04:15;9.00;99.90
13976;DHT22;7062;49.792;9.946;2024-02-28T04:06:40;9.00;99.90
13976;DHT22;7062;49.792;9.946;2024-02-28T04:09:06;8.90;99.90
13976;DHT22;7062;49.792;9.946;2024-02-28T04:11:32;9.00;99.90
13976;DHT22;7062;49.792;9.946;2024-02-28T04:13:58;9.00;99.90
13976;DHT22;7062;49.792;9.946;2024-02-28T04:16:23;8.90;99.90
13976;DHT22;7062;49.792;9.946;2024-02-28T04:18:49;8.80;99.90
13976;DHT22;7062;49.792;9.946;2024-02-28T04:21:15;8.80;99.90
13976;DHT22;7062;49.792;9.946;2024-02-28T04:23:40;8.90;99.90
13976;DHT22;7062;49.792;9.946;2024-02-28T04:26:07;9.10;99.90
13976;DHT22;7062;49.792;9.946;2024-02-28T04:28:33;9.10;99.90
13976;DHT22;7062;49.792;9.946;2024-02-28T04:30:58;9.20;99.90
13976;DHT22;7062;49.792;9.946;2024-02-28T04:33:25;9.10;99.90
13976;DHT22;7062;49.792;9.946;2024-02-28T04:35:50;9.10;99.90
13976;DHT22;7062;49.792;9.946;2024-02-28T04:38:16;9.00;99.90
13976;DHT22;7062;49.792;9.946;2024-02-28T04:40:42;9.10;99.90
13976;DHT22;7062;49.792;9.946;2024-02-28T04:43:07;9.10;99.90
13976;DHT22;7062;49.792;9.946;2024-02-28T04:45:33;9.10;99.90
13976;DHT22;7062;49.792;9.946;2024-02-28T04:47:58;9.00;99.90
13976;DHT22;7062;49.792;9.946;2024-02-28T04:50:24;8.90;99.90
13976;DHT22;7062;49.792;9.946;2024-02-28T04:52:50;8.90;99.90
13976;DHT22;7062;49.792;9.946;2024-02-28T04:55:15;8.80;99.90
13976;DHT22;7062;49.792;9.946;2024-02-28T04:57:41;8.80;99.90
13976;DHT22;7062;49.792;9.946;2024-02-28T05:00:07;8.90;99.90
13976;DHT22;7062;49.792;9.946;2024-02-28T05:02:33;9.00;99.90
13976;DHT22;7062;49.792;9.946;2024-02-28T05:04:59;8.90;99.90
13976;DHT22;7062;49.792;9.946;2024-02-28T05:07:25;8.90;99.90
13976;DHT22;7062;49.792;9.946;2024-02-28T05:09:50;8.60;99.90
13976;DHT22;7062;49.792;9.946;2024-02-28T05:12:16;8.60;99.90
13976;DHT22;7062;49.792;9.946;2024-02-28T05:14:41;8.70;99.90
13976;DHT22;7062;49.792;9.946;2024-02-28T05:17:07;8.80;99.90
13976;DHT22;7062;49.792;9.946;2024-02-28T05:19:33;8.90;99.90
13976;DHT22;7062;49.792;9.946;2024-02-28T05:21:58;8.90;99.90
13976;DHT22;7062;49.792;9.946;2024-02-28T05:24:26;9.00;99.90
13976;DHT22;7062;49.792;9.946;2024-02-28T05:26:51;9.00;99.90
13976;DHT22;7062;49.792;9.946;2024-02-28T05:29:17;9.00;99.90
13976;DHT22;7062;49.792;9.946;2024-02-28T05:31:43;9.00;99.90
13976;DHT22;7062;49.792;9.946;2024-02-28T05:34:09;9.00;99.90
13976;DHT22;7062;49.792;9.946;2024-02-28T05:36:34;8.90;99.90
13976;DHT22;7062;49.792;9.946;2024-02-28T05:39:01;8.90;99.90
13976;DHT22;7062;49.792;9.946;2024-02-28T05:41:27;8.80;99.90
13976;DHT22;7062;49.792;9.946;2024-02-28T05:43:53;8.90;99.90
13976;DHT22;7062;49.792;9.946;2024-02-28T05:46:19;8.80;99.90
13976;DHT22;7062;49.792;9.946;2024-02-28T05:48:46;8.80;99.90
13976;DHT22;7062;49.792;9.946;2024-02-28T05:51:12;8.90;99.90
13976;DHT22;7062;49.792;9.946;2024-02-28T05:53:39;9.00;99.90
13976;DHT22;7062;49.792;9.946;2024-02-28T05:56:05;8.90;99.90
13976;DHT22;7062;49.792;9.946;2024-02-28T05:58:38;9.00;99.90
13976;DHT22;7062;49.792;9.946;2024-02-28T06:01:04;9.00;99.90
13976;DHT22;7062;49.792;9.946;2024-02-28T06:03:30;9.00;99.90
13976;DHT22;7062;49.792;9.946;2024-02-28T06:05:55;8.90;99.90
13976;DHT22;7062;49.792;9.946;2024-02-28T06:08:23;8.90;99.90
13976;DHT22;7062;49.792;9.946;2024-02-28T06:10:48;8.80;99.90
13976;DHT22;7062;49.792;9.946;2024-02-28T06:13:14;8.80;99.90
13976;DHT22;7062;49.792;9.946;2024-02-28T06:15:40;8.90;99.90
13976;DHT22;7062;49.792;9.946;2024-02-28T06:18:06;8.90;99.90
13976;DHT22;7062;49.792;9.946;2024-02-28T06:20:31;8.90;99.90
13976;DHT22;7062;49.792;9.946;2024-02-28T06:22:57;8.90;99.90
13976;DHT22;7062;49.792;9.946;2024-02-28T06:25:23;9.00;99.90
13976;DHT22;7062;49.792;9.946;2024-02-28T06:27:49;8.70;99.90
13976;DHT22;7062;49.792;9.946;2024-02-28T06:30:16;8.60;99.90
13976;DHT22;7062;49.792;9.946;2024-02-28T06:32:42;8.50;99.90
13976;DHT22;7062;49.792;9.946;2024-02-28T06:35:09;8.30;99.90
13976;DHT22;7062;49.792;9.946;2024-02-28T06:37:35;8.40;99.90
13976;DHT22;7062;49.792;9.946;2024-02-28T06:40:02;8.50;99.90
13976;DHT22;7062;49.792;9.946;2024-02-28T06:42:29;8.40;99.90
13976;DHT22;7062;49.792;9.946;2024-02-28T06:44:55;8.40;99.90
13976;DHT22;7062;49.792;9.946;2024-02-28T06:47:22;8.30;99.90
13976;DHT22;7062;49.792;9.946;2024-02-28T06:49:47;8.40;99.90
13976;DHT22;7062;49.792;9.946;2024-02-28T06:52:14;8.50;99.90
13976;DHT22;7062;49.792;9.946;2024-02-28T06:54:40;8.50;99.90
13976;DHT22;7062;49.792;9.946;2024-02-28T06:57:05;8.40;99.90
13976;DHT22;7062;49.792;9.946;2024-02-28T06:59:31;8.50;99.90
13976;DHT22;7062;49.792;9.946;2024-02-28T07:01:57;8.50;99.90
13976;DHT22;7062;49.792;9.946;2024-02-28T07:04:22;8.50;99.90
13976;DHT22;7062;49.792;9.946;2024-02-28T07:06:48;8.50;99.90
13976;DHT22;7062;49.792;9.946;2024-02-28T07:09:14;8.50;99.90
13976;DHT22;7062;49.792;9.946;2024-02-28T07:11:40;8.40;99.90
13976;DHT22;7062;49.792;9.946;2024-02-28T07:14:06;8.30;99.90
13976;DHT22;7062;49.792;9.946;2024-02-28T07:16:32;8.30;99.90
13976;DHT22;7062;49.792;9.946;2024-02-28T07:19:02;8.40;99.90
13976;DHT22;7062;49.792;9.946;2024-02-28T07:21:28;8.50;99.90
13976;DHT22;7062;49.792;9.946;2024-02-28T07:23:55;8.40;99.90
13976;DHT22;7062;49.792;9.946;2024-02-28T07:26:21;8.20;99.90
13976;DHT22;7062;49.792;9.946;2024-02-28T07:28:47;8.10;99.90
13976;DHT22;7062;49.792;9.946;2024-02-28T07:31:18;8.10;99.90
13976;DHT22;7062;49.792;9.946;2024-02-28T07:33:44;8.10;99.90
13976;DHT22;7062;49.792;9.946;2024-02-28T07:36:10;8.30;99.90
13976;DHT22;7062;49.792;9.946;2024-02-28T07:38:36;8.30;99.90
13976;DHT22;7062;49.792;9.946;2024-02-28T07:41:02;8.30;99.90
13976;DHT22;7062;49.792;9.946;2024-02-28T07:43:28;8.40;99.90
13976;DHT22;7062;49.792;9.946;2024-02-28T07:45:58;8.50;99.90
13976;DHT22;7062;49.792;9.946;2024-02-28T07:48:24;8.60;99.90
13976;DHT22;7062;49.792;9.946;2024-02-28T07:50:49;8.50;99.90
13976;DHT22;7062;49.792;9.946;2024-02-28T07:53:15;8.20;99.90
13976;DHT22;7062;49.792;9.946;2024-02-28T07:55:41;8.30;99.90
13976;DHT22;7062;49.792;9.946;2024-02-28T07:58:07;8.10;99.90
13976;DHT22;7062;49.792;9.946;2024-02-28T08:00:33;8.30;99.90
13976;DHT22;7062;49.792;9.946;2024-02-28T08:02:59;8.40;99.90
13976;DHT22;7062;49.792;9.946;2024-02-28T08:05:24;8.50;99.90
13976;DHT22;7062;49.792;9.946;2024-02-28T08:07:50;8.60;99.90
13976;DHT22;7062;49.792;9.946;2024-02-28T08:10:16;8.70;99.90
13976;DHT22;7062;49.792;9.946;2024-02-28T08:12:41;8.70;99.90
13976;DHT22;7062;49.792;9.946;2024-02-28T08:15:07;8.60;99.90
13976;DHT22;7062;49.792;9.946;2024-02-28T08:17:33;8.70;99.90
13976;DHT22;7062;49.792;9.946;2024-02-28T08:19:59;8.80;99.90
13976;DHT22;7062;49.792;9.946;2024-02-28T08:22:25;8.40;99.90
13976;DHT22;7062;49.792;9.946;2024-02-28T08:24:51;8.30;99.90
13976;DHT22;7062;49.792;9.946;2024-02-28T08:27:17;8.40;99.90
13976;DHT22;7062;49.792;9.946;2024-02-28T08:29:43;8.60;99.90
13976;DHT22;7062;49.792;9.946;2024-02-28T08:32:12;8.70;99.90
13976;DHT22;7062;49.792;9.946;2024-02-28T08:34:43;8.80;99.90
13976;DHT22;7062;49.792;9.946;2024-02-28T08:37:08;8.90;99.90
13976;DHT22;7062;49.792;9.946;2024-02-28T08:39:34;9.10;99.90
13976;DHT22;7062;49.792;9.946;2024-02-28T08:41:59;9.20;99.90
13976;DHT22;7062;49.792;9.946;2024-02-28T08:44:25;9.60;99.90
13976;DHT22;7062;49.792;9.946;2024-02-28T08:46:51;9.70;99.90
13976;DHT22;7062;49.792;9.946;2024-02-28T08:49:17;9.80;99.90
13976;DHT22;7062;49.792;9.946;2024-02-28T08:51:42;10.10;99.90
13976;DHT22;7062;49.792;9.946;2024-02-28T08:54:08;10.40;99.90
13976;DHT22;7062;49.792;9.946;2024-02-28T08:56:34;10.30;99.90
13976;DHT22;7062;49.792;9.946;2024-02-28T08:58:59;10.40;99.90
13976;DHT22;7062;49.792;9.946;2024-02-28T09:01:25;10.60;99.90
13976;DHT22;7062;49.792;9.946;2024-02-28T09:03:51;10.80;99.90
13976;DHT22;7062;49.792;9.946;2024-02-28T09:06:16;10.80;99.90
13976;DHT22;7062;49.792;9.946;2024-02-28T09:08:42;11.30;99.90
13976;DHT22;7062;49.792;9.946;2024-02-28T09:11:08;12.00;99.90
13976;DHT22;7062;49.792;9.946;2024-02-28T09:13:34;13.10;99.90
13976;DHT22;7062;49.792;9.946;2024-02-28T09:16:01;14.00;99.90
13976;DHT22;7062;49.792;9.946;2024-02-28T09:18:27;14.50;99.90
13976;DHT22;7062;49.792;9.946;2024-02-28T09:20:53;15.40;99.90
13976;DHT22;7062;49.792;9.946;2024-02-28T09:23:19;15.70;99.90
13976;DHT22;7062;49.792;9.946;2024-02-28T09:25:44;16.30;99.90
13976;DHT22;7062;49.792;9.946;2024-02-28T09:28:10;16.50;99.90
13976;DHT22;7062;49.792;9.946;2024-02-28T09:30:39;17.00;99.90
13976;DHT22;7062;49.792;9.946;2024-02-28T09:33:04;17.30;99.90
13976;DHT22;7062;49.792;9.946;2024-02-28T09:35:30;17.60;99.90
13976;DHT22;7062;49.792;9.946;2024-02-28T09:37:56;17.80;99.90
13976;DHT22;7062;49.792;9.946;2024-02-28T09:40:22;18.00;99.90
13976;DHT22;7062;49.792;9.946;2024-02-28T09:42:52;18.20;99.90
13976;DHT22;7062;49.792;9.946;2024-02-28T09:45:20;18.60;99.90
13976;DHT22;7062;49.792;9.946;2024-02-28T09:47:46;18.90;98.90
13976;DHT22;7062;49.792;9.946;2024-02-28T09:50:13;18.80;99.10
13976;DHT22;7062;49.792;9.946;2024-02-28T09:52:39;19.20;98.70
13976;DHT22;7062;49.792;9.946;2024-02-28T09:55:05;19.90;98.00
13976;DHT22;7062;49.792;9.946;2024-02-28T09:57:32;20.30;96.20
13976;DHT22;7062;49.792;9.946;2024-02-28T10:00:00;20.40;96.50
13976;DHT22;7062;49.792;9.946;2024-02-28T10:02:26;20.10;96.00
13976;DHT22;7062;49.792;9.946;2024-02-28T10:04:54;20.40;95.80
13976;DHT22;7062;49.792;9.946;2024-02-28T10:07:21;21.00;94.10
13976;DHT22;7062;49.792;9.946;2024-02-28T10:09:47;21.30;93.40
13976;DHT22;7062;49.792;9.946;2024-02-28T10:12:13;21.30;92.90
13976;DHT22;7062;49.792;9.946;2024-02-28T10:14:39;21.10;92.30
13976;DHT22;7062;49.792;9.946;2024-02-28T10:17:05;20.50;93.10
13976;DHT22;7062;49.792;9.946;2024-02-28T10:19:31;21.00;92.60
13976;DHT22;7062;49.792;9.946;2024-02-28T10:21:56;21.80;91.40
13976;DHT22;7062;49.792;9.946;2024-02-28T10:24:26;21.90;91.40
13976;DHT22;7062;49.792;9.946;2024-02-28T10:26:51;22.60;90.20
13976;DHT22;7062;49.792;9.946;2024-02-28T10:29:24;23.10;90.00
13976;DHT22;7062;49.792;9.946;2024-02-28T10:31:56;23.70;88.60
13976;DHT22;7062;49.792;9.946;2024-02-28T10:34:22;24.00;85.90
13976;DHT22;7062;49.792;9.946;2024-02-28T10:36:49;24.30;83.20
13976;DHT22;7062;49.792;9.946;2024-02-28T10:39:15;24.10;83.60
13976;DHT22;7062;49.792;9.946;2024-02-28T10:41:42;24.90;82.10
13976;DHT22;7062;49.792;9.946;2024-02-28T10:44:12;25.30;80.40
13976;DHT22;7062;49.792;9.946;2024-02-28T10:46:38;25.10;80.20
13976;DHT22;7062;49.792;9.946;2024-02-28T10:49:05;25.40;77.50
13976;DHT22;7062;49.792;9.946;2024-02-28T10:51:34;24.70;77.40
13976;DHT22;7062;49.792;9.946;2024-02-28T10:54:19;25.50;77.30
13976;DHT22;7062;49.792;9.946;2024-02-28T10:56:46;26.60;73.90
13976;DHT22;7062;49.792;9.946;2024-02-28T10:59:12;27.50;71.30
13976;DHT22;7062;49.792;9.946;2024-02-28T11:01:40;28.30;70.00
13976;DHT22;7062;49.792;9.946;2024-02-28T11:04:10;28.80;67.60
13976;DHT22;7062;49.792;9.946;2024-02-28T11:06:50;29.30;66.10
13976;DHT22;7062;49.792;9.946;2024-02-28T11:09:23;30.00;63.50
13976;DHT22;7062;49.792;9.946;2024-02-28T11:11:52;30.20;62.20
13976;DHT22;7062;49.792;9.946;2024-02-28T11:14:19;30.90;61.30
13976;DHT22;7062;49.792;9.946;2024-02-28T11:16:48;30.60;59.60
13976;DHT22;7062;49.792;9.946;2024-02-28T11:19:24;31.00;59.20
13976;DHT22;7062;49.792;9.946;2024-02-28T11:21:57;30.80;57.40
13976;DHT22;7062;49.792;9.946;2024-02-28T11:24:34;31.20;57.20
13976;DHT22;7062;49.792;9.946;2024-02-28T11:27:01;31.30;55.70
13976;DHT22;7062;49.792;9.946;2024-02-28T11:29:31;31.10;54.80
13976;DHT22;7062;49.792;9.946;2024-02-28T11:31:57;31.50;54.80
13976;DHT22;7062;49.792;9.946;2024-02-28T11:34:22;31.90;53.40
13976;DHT22;7062;49.792;9.946;2024-02-28T11:36:49;31.40;52.70
13976;DHT22;7062;49.792;9.946;2024-02-28T11:39:15;31.10;53.50
13976;DHT22;7062;49.792;9.946;2024-02-28T11:41:42;31.30;53.70
13976;DHT22;7062;49.792;9.946;2024-02-28T11:44:20;30.80;52.40
13976;DHT22;7062;49.792;9.946;2024-02-28T11:46:47;31.80;52.10
13976;DHT22;7062;49.792;9.946;2024-02-28T11:49:13;30.70;51.80
13976;DHT22;7062;49.792;9.946;2024-02-28T11:51:42;29.60;53.10
13976;DHT22;7062;49.792;9.946;2024-02-28T11:54:09;29.20;53.00
13976;DHT22;7062;49.792;9.946;2024-02-28T11:56:37;30.00;53.20
13976;DHT22;7062;49.792;9.946;2024-02-28T11:59:03;31.20;52.80
13976;DHT22;7062;49.792;9.946;2024-02-28T12:01:35;32.50;51.60
13976;DHT22;7062;49.792;9.946;2024-02-28T12:04:05;33.00;50.50
13976;DHT22;7062;49.792;9.946;2024-02-28T12:06:32;32.80;50.10
13976;DHT22;7062;49.792;9.946;2024-02-28T12:08:57;31.90;49.60
13976;DHT22;7062;49.792;9.946;2024-02-28T12:11:24;32.20;50.30
13976;DHT22;7062;49.792;9.946;2024-02-28T12:13:54;31.80;49.30
13976;DHT22;7062;49.792;9.946;2024-02-28T12:16:30;32.00;48.70
13976;DHT22;7062;49.792;9.946;2024-02-28T12:18:55;33.00;48.30
13976;DHT22;7062;49.792;9.946;2024-02-28T12:21:21;32.70;47.80
13976;DHT22;7062;49.792;9.946;2024-02-28T12:23:47;32.90;48.50
13976;DHT22;7062;49.792;9.946;2024-02-28T12:26:19;33.30;47.20
13976;DHT22;7062;49.792;9.946;2024-02-28T12:28:45;33.00;47.10
13976;DHT22;7062;49.792;9.946;2024-02-28T12:31:11;33.30;46.90
13976;DHT22;7062;49.792;9.946;2024-02-28T12:33:38;33.90;46.20
13976;DHT22;7062;49.792;9.946;2024-02-28T12:36:04;33.80;45.40
13976;DHT22;7062;49.792;9.946;2024-02-28T12:38:30;32.50;46.50
13976;DHT22;7062;49.792;9.946;2024-02-28T12:40:57;32.60;47.00
13976;DHT22;7062;49.792;9.946;2024-02-28T12:43:23;32.80;46.70
13976;DHT22;7062;49.792;9.946;2024-02-28T12:45:48;32.40;45.90
13976;DHT22;7062;49.792;9.946;2024-02-28T12:48:14;32.60;46.50
13976;DHT22;7062;49.792;9.946;2024-02-28T12:50:39;32.90;46.20
13976;DHT22;7062;49.792;9.946;2024-02-28T12:53:05;33.30;46.30
13976;DHT22;7062;49.792;9.946;2024-02-28T12:55:31;33.80;44.80
13976;DHT22;7062;49.792;9.946;2024-02-28T12:57:57;34.10;45.20
13976;DHT22;7062;49.792;9.946;2024-02-28T13:00:25;34.00;44.90
13976;DHT22;7062;49.792;9.946;2024-02-28T13:02:50;33.80;44.40
13976;DHT22;7062;49.792;9.946;2024-02-28T13:05:16;34.10;44.40
13976;DHT22;7062;49.792;9.946;2024-02-28T13:07:42;34.10;43.70
13976;DHT22;7062;49.792;9.946;2024-02-28T13:10:08;34.00;44.00
13976;DHT22;7062;49.792;9.946;2024-02-28T13:12:34;34.40;43.90
13976;DHT22;7062;49.792;9.946;2024-02-28T13:15:00;33.90;43.50
13976;DHT22;7062;49.792;9.946;2024-02-28T13:17:26;32.60;43.40
13976;DHT22;7062;49.792;9.946;2024-02-28T13:19:51;31.90;44.80
13976;DHT22;7062;49.792;9.946;2024-02-28T13:22:17;31.60;44.70
13976;DHT22;7062;49.792;9.946;2024-02-28T13:24:43;31.80;44.00
13976;DHT22;7062;49.792;9.946;2024-02-28T13:27:08;31.80;44.00
13976;DHT22;7062;49.792;9.946;2024-02-28T13:29:35;31.30;44.70
13976;DHT22;7062;49.792;9.946;2024-02-28T13:32:01;30.90;45.10
13976;DHT22;7062;49.792;9.946;2024-02-28T13:34:27;31.30;45.60
13976;DHT22;7062;49.792;9.946;2024-02-28T13:36:52;30.80;44.90
13976;DHT22;7062;49.792;9.946;2024-02-28T13:39:18;30.30;46.00
13976;DHT22;7062;49.792;9.946;2024-02-28T13:41:44;30.20;45.70
13976;DHT22;7062;49.792;9.946;2024-02-28T13:44:10;30.50;45.00
13976;DHT22;7062;49.792;9.946;2024-02-28T13:46:35;30.50;45.30
13976;DHT22;7062;49.792;9.946;2024-02-28T13:49:03;29.90;45.90
13976;DHT22;7062;49.792;9.946;2024-02-28T13:51:29;30.20;45.60
13976;DHT22;7062;49.792;9.946;2024-02-28T13:53:55;29.90;45.80
13976;DHT22;7062;49.792;9.946;2024-02-28T13:56:21;30.00;45.90
13976;DHT22;7062;49.792;9.946;2024-02-28T13:58:47;29.60;45.60
13976;DHT22;7062;49.792;9.946;2024-02-28T14:01:12;28.80;45.40
13976;DHT22;7062;49.792;9.946;2024-02-28T14:03:38;28.50;46.10
13976;DHT22;7062;49.792;9.946;2024-02-28T14:06:04;29.10;45.50
13976;DHT22;7062;49.792;9.946;2024-02-28T14:08:30;29.40;45.50
13976;DHT22;7062;49.792;9.946;2024-02-28T14:10:55;29.30;45.60
13976;DHT22;7062;49.792;9.946;2024-02-28T14:13:21;28.90;46.00
13976;DHT22;7062;49.792;9.946;2024-02-28T14:15:47;28.90;45.70
13976;DHT22;7062;49.792;9.946;2024-02-28T14:18:13;28.40;46.00
13976;DHT22;7062;49.792;9.946;2024-02-28T14:20:38;27.10;46.80
13976;DHT22;7062;49.792;9.946;2024-02-28T14:23:04;26.90;47.50
13976;DHT22;7062;49.792;9.946;2024-02-28T14:25:30;26.90;47.10
13976;DHT22;7062;49.792;9.946;2024-02-28T14:27:56;27.60;46.60
13976;DHT22;7062;49.792;9.946;2024-02-28T14:30:21;28.00;46.40
13976;DHT22;7062;49.792;9.946;2024-02-28T14:32:48;28.20;46.20
13976;DHT22;7062;49.792;9.946;2024-02-28T14:35:16;28.30;46.30
13976;DHT22;7062;49.792;9.946;2024-02-28T14:37:42;29.00;46.00
13976;DHT22;7062;49.792;9.946;2024-02-28T14:40:09;28.80;45.20
13976;DHT22;7062;49.792;9.946;2024-02-28T14:42:42;29.20;45.00
13976;DHT22;7062;49.792;9.946;2024-02-28T14:45:09;29.50;44.60
13976;DHT22;7062;49.792;9.946;2024-02-28T14:47:36;29.10;44.50
13976;DHT22;7062;49.792;9.946;2024-02-28T14:50:03;29.00;44.50
13976;DHT22;7062;49.792;9.946;2024-02-28T14:52:29;28.60;44.50
13976;DHT22;7062;49.792;9.946;2024-02-28T14:54:54;28.10;44.60
13976;DHT22;7062;49.792;9.946;2024-02-28T14:57:20;27.90;45.30
13976;DHT22;7062;49.792;9.946;2024-02-28T14:59:46;27.60;46.10
13976;DHT22;7062;49.792;9.946;2024-02-28T15:02:11;27.40;46.00
13976;DHT22;7062;49.792;9.946;2024-02-28T15:04:37;27.60;46.10
13976;DHT22;7062;49.792;9.946;2024-02-28T15:07:04;27.60;45.60
13976;DHT22;7062;49.792;9.946;2024-02-28T15:09:29;26.90;46.60
13976;DHT22;7062;49.792;9.946;2024-02-28T15:11:55;27.10;47.00
13976;DHT22;7062;49.792;9.946;2024-02-28T15:14:22;27.20;46.90
13976;DHT22;7062;49.792;9.946;2024-02-28T15:16:48;27.20;46.80
13976;DHT22;7062;49.792;9.946;2024-02-28T15:19:14;27.00;46.00
13976;DHT22;7062;49.792;9.946;2024-02-28T15:21:40;25.60;47.70
13976;DHT22;7062;49.792;9.946;2024-02-28T15:24:06;24.80;48.60
13976;DHT22;7062;49.792;9.946;2024-02-28T15:26:31;24.80;48.50
13976;DHT22;7062;49.792;9.946;2024-02-28T15:28:57;24.40;49.20
13976;DHT22;7062;49.792;9.946;2024-02-28T15:31:23;24.00;50.10
13976;DHT22;7062;49.792;9.946;2024-02-28T15:33:49;23.70;50.40
13976;DHT22;7062;49.792;9.946;2024-02-28T15:36:15;23.70;50.70
13976;DHT22;7062;49.792;9.946;2024-02-28T15:38:40;22.70;51.80
13976;DHT22;7062;49.792;9.946;2024-02-28T15:41:06;22.40;51.90
13976;DHT22;7062;49.792;9.946;2024-02-28T15:43:33;21.10;53.90
13976;DHT22;7062;49.792;9.946;2024-02-28T15:46:00;20.20;55.70
13976;DHT22;7062;49.792;9.946;2024-02-28T15:48:26;19.80;56.30